sensor_id;sensor_type;location;lat;lon;timestamp;P1;durP1;ratioP1;P2;durP2;ratioP2
3271;SDS011;1648;50.022;8.424;2024-02-14T00:14:11;5.90;;;3.40;;
3271;SDS011;1648;50.022;8.424;2024-02-14T00:29:18;4.00;;;2.90;;
3271;SDS011;1648;50.022;8.424;2024-02-14T00:44:28;7.17;;;3.00;;
3271;SDS011;1648;50.022;8.424;2024-02-14T00:59:32;5.07;;;3.20;;
3271;SDS011;1648;50.022;8.424;2024-02-14T01:14:35;10.03;;;3.57;;
3271;SDS011;1648;50.022;8.424;2024-02-14T01:29:41;7.40;;;4.20;;
3271;SDS011;1648;50.022;8.424;2024-02-14T01:44:46;9.63;;;4.80;;
3271;SDS011;1648;50.022;8.424;2024-02-14T01:59:50;14.10;;;5.90;;
3271;SDS011;1648;50.022;8.424;2024-02-14T02:14:57;11.07;;;6.00;;
3271;SDS011;1648;50.022;8.424;2024-02-14T02:30:01;10.47;;;5.70;;
3271;SDS011;1648;50.022;8.424;2024-02-14T02:45:06;13.00;;;5.93;;
3271;SDS011;1648;50.022;8.424;2024-02-14T03:00:11;7.57;;;5.40;;
3271;SDS011;1648;50.022;8.424;2024-02-14T03:15:16;7.60;;;5.30;;
3271;SDS011;1648;50.022;8.424;2024-02-14T03:30:20;11.80;;;5.23;;
3271;SDS011;1648;50.022;8.424;2024-02-14T03:45:24;8.00;;;5.07;;
3271;SDS011;1648;50.022;8.424;2024-02-14T04:00:28;8.30;;;5.03;;
3271;SDS011;1648;50.022;8.424;2024-02-14T04:15:35;11.03;;;5.73;;
3271;SDS011;1648;50.022;8.424;2024-02-14T04:30:41;7.10;;;5.30;;
3271;SDS011;1648;50.022;8.424;2024-02-14T04:45:46;8.67;;;4.97;;
3271;SDS011;1648;50.022;8.424;2024-02-14T05:00:49;8.83;;;6.20;;
3271;SDS011;1648;50.022;8.424;2024-02-14T05:15:53;7.20;;;4.97;;
3271;SDS011;1648;50.022;8.424;2024-02-14T05:30:56;9.03;;;5.70;;
3271;SDS011;1648;50.022;8.424;2024-02-14T05:46:02;7.70;;;5.53;;
3271;SDS011;1648;50.022;8.424;2024-02-14T06:01:06;8.67;;;4.77;;
3271;SDS011;1648;50.022;8.424;2024-02-14T06:16:09;9.87;;;4.83;;
3271;SDS011;1648;50.022;8.424;2024-02-14T06:31:13;11.90;;;5.27;;
3271;SDS011;1648;50.022;8.424;2024-02-14T06:46:16;8.70;;;5.00;;
3271;SDS011;1648;50.022;8.424;2024-02-14T07:01:21;11.57;;;4.40;;
3271;SDS011;1648;50.022;8.424;2024-02-14T07:16:24;6.40;;;5.20;;
3271;SDS011;1648;50.022;8.424;2024-02-14T07:31:31;8.37;;;4.90;;
3271;SDS011;1648;50.022;8.424;2024-02-14T07:46:36;6.87;;;4.20;;
3271;SDS011;1648;50.022;8.424;2024-02-14T08:01:39;5.87;;;4.07;;
3271;SDS011;1648;50.022;8.424;2024-02-14T08:16:43;7.83;;;4.43;;
3271;SDS011;1648;50.022;8.424;2024-02-14T08:31:46;7.23;;;2.70;;
3271;SDS011;1648;50.022;8.424;2024-02-14T08:46:50;4.90;;;3.00;;
3271;SDS011;1648;50.022;8.424;2024-02-14T09:01:54;9.97;;;3.50;;
3271;SDS011;1648;50.022;8.424;2024-02-14T09:16:57;14.33;;;3.47;;
3271;SDS011;1648;50.022;8.424;2024-02-14T09:32:00;5.63;;;3.23;;
3271;SDS011;1648;50.022;8.424;2024-02-14T09:47:05;5.00;;;3.17;;
3271;SDS011;1648;50.022;8.424;2024-02-14T10:02:09;9.27;;;3.00;;
3271;SDS011;1648;50.022;8.424;2024-02-14T10:17:18;6.27;;;3.70;;
3271;SDS011;1648;50.022;8.424;2024-02-14T10:32:21;5.77;;;3.20;;
3271;SDS011;1648;50.022;8.424;2024-02-14T10:47:29;3.90;;;2.77;;
3271;SDS011;1648;50.022;8.424;2024-02-14T11:02:34;5.90;;;2.23;;
3271;SDS011;1648;50.022;8.424;2024-02-14T11:17:38;5.27;;;2.20;;
3271;SDS011;1648;50.022;8.424;2024-02-14T11:32:43;10.67;;;2.80;;
3271;SDS011;1648;50.022;8.424;2024-02-14T11:47:47;2.90;;;2.07;;
3271;SDS011;1648;50.022;8.424;2024-02-14T12:02:51;4.83;;;2.60;;
3271;SDS011;1648;50.022;8.424;2024-02-14T12:17:55;5.23;;;3.10;;
3271;SDS011;1648;50.022;8.424;2024-02-14T12:32:59;5.90;;;3.50;;
3271;SDS011;1648;50.022;8.424;2024-02-14T12:48:03;5.70;;;3.30;;
3271;SDS011;1648;50.022;8.424;2024-02-14T13:03:07;6.43;;;3.30;;
3271;SDS011;1648;50.022;8.424;2024-02-14T13:18:10;5.20;;;3.27;;
3271;SDS011;1648;50.022;8.424;2024-02-14T13:33:14;6.20;;;3.97;;
3271;SDS011;1648;50.022;8.424;2024-02-14T13:48:18;5.73;;;4.17;;
3271;SDS011;1648;50.022;8.424;2024-02-14T14:03:22;8.90;;;4.90;;
3271;SDS011;1648;50.022;8.424;2024-02-14T14:18:25;5.70;;;3.87;;
3271;SDS011;1648;50.022;8.424;2024-02-14T14:33:29;4.27;;;3.87;;
3271;SDS011;1648;50.022;8.424;2024-02-14T14:48:34;8.13;;;3.83;;
3271;SDS011;1648;50.022;8.424;2024-02-14T15:03:42;5.60;;;4.50;;
3271;SDS011;1648;50.022;8.424;2024-02-14T15:18:46;5.97;;;4.40;;
3271;SDS011;1648;50.022;8.424;2024-02-14T15:33:50;5.30;;;4.80;;
3271;SDS011;1648;50.022;8.424;2024-02-14T15:48:54;5.23;;;4.73;;
3271;SDS011;1648;50.022;8.424;2024-02-14T16:03:58;3.37;;;3.07;;
3271;SDS011;1648;50.022;8.424;2024-02-14T16:19:02;4.97;;;4.47;;
3271;SDS011;1648;50.022;8.424;2024-02-14T16:34:06;4.40;;;4.00;;
3271;SDS011;1648;50.022;8.424;2024-02-14T16:49:11;6.20;;;4.30;;
3271;SDS011;1648;50.022;8.424;2024-02-14T17:04:16;5.33;;;4.57;;
3271;SDS011;1648;50.022;8.424;2024-02-14T17:19:20;3.43;;;3.10;;
3271;SDS011;1648;50.022;8.424;2024-02-14T17:34:23;6.67;;;4.97;;
3271;SDS011;1648;50.022;8.424;2024-02-14T17:49:30;4.60;;;4.17;;
3271;SDS011;1648;50.022;8.424;2024-02-14T18:04:33;4.43;;;3.40;;
3271;SDS011;1648;50.022;8.424;2024-02-14T18:19:40;3.37;;;3.00;;
3271;SDS011;1648;50.022;8.424;2024-02-14T18:34:43;3.30;;;3.10;;
3271;SDS011;1648;50.022;8.424;2024-02-14T18:49:47;3.63;;;3.33;;
3271;SDS011;1648;50.022;8.424;2024-02-14T19:04:50;3.77;;;3.47;;
3271;SDS011;1648;50.022;8.424;2024-02-14T19:19:54;4.03;;;3.73;;
3271;SDS011;1648;50.022;8.424;2024-02-14T19:34:58;3.80;;;3.50;;
3271;SDS011;1648;50.022;8.424;2024-02-14T19:50:03;4.30;;;3.90;;
3271;SDS011;1648;50.022;8.424;2024-02-14T20:05:08;4.60;;;4.20;;
3271;SDS011;1648;50.022;8.424;2024-02-14T20:20:15;6.27;;;5.57;;
3271;SDS011;1648;50.022;8.424;2024-02-14T20:35:21;6.40;;;5.40;;
3271;SDS011;1648;50.022;8.424;2024-02-14T20:50:26;6.43;;;5.77;;
3271;SDS011;1648;50.022;8.424;2024-02-14T21:05:31;8.03;;;6.53;;
3271;SDS011;1648;50.022;8.424;2024-02-14T21:20:47;9.57;;;7.00;;
3271;SDS011;1648;50.022;8.424;2024-02-14T21:36:06;9.70;;;7.37;;
3271;SDS011;1648;50.022;8.424;2024-02-14T21:51:15;9.23;;;7.70;;
3271;SDS011;1648;50.022;8.424;2024-02-14T22:06:19;11.73;;;7.57;;
3271;SDS011;1648;50.022;8.424;2024-02-14T22:21:25;8.73;;;6.87;;
3271;SDS011;1648;50.022;8.424;2024-02-14T22:36:29;10.67;;;8.03;;
3271;SDS011;1648;50.022;8.424;2024-02-14T22:51:33;7.50;;;6.70;;
3271;SDS011;1648;50.022;8.424;2024-02-14T23:06:36;9.63;;;7.40;;
3271;SDS011;1648;50.022;8.424;2024-02-14T23:21:44;8.53;;;7.60;;
3271;SDS011;1648;50.022;8.424;2024-02-14T23:36:48;9.40;;;8.10;;
3271;SDS011;1648;50.022;8.424;2024-02-14T23:51:52;13.50;;;8.50;;
